»·PEaware :: N11204 KDVO-KOAR

N11204 :: KDVO-KOAR

FLIGHT INFORMATION

Flight Status: Arrived
Operator: Privately registered:
United States
More flights under this callsign
Pilot: Thomas C. (10835)
Aircraft: CESSNA 150 COMMUTER AEROBAT
(C150)
More flights by this aircraft type
Origin: KDVO Gnoss
United States
Destination: KOAR Marina
United States
More flights between these airports :: More routes between these airports
Route: +
File this flight plan on PilotEdge
Remarks:
Altitude:
(Current/Filed)
5,500ft
Speed:
(Current/Filed)
0kts
Departed: 16-Sep-20 05:43 PM
Arrived: 16-Sep-20 06:41 PM
Distance/Time
Traveled:
96nm/0:58
Distance/Time
To Go:
Arrived

Flight Plot

Page will automatically refresh every two minutes.

Flight plan parsing failed; only flown route is shown


Map Options




Map Legend


Flown Route
Filed Route
Departure Airport
Arrival Airport
Navaid (VOR, NDB)
Fix

Horizontal Profiles

Position Reports

Time Latitude Longitude Heading Altitude Ground
Speed
16-Sep-20 17:41 38.098492 -122.530644 167 5496ft 108kts
16-Sep-20 17:42 38.069432 -122.520040 172 5501ft 108kts
16-Sep-20 17:43 38.040079 -122.516936 188 5514ft 104kts
16-Sep-20 17:44 38.011485 -122.521457 198 5483ft 102kts
16-Sep-20 17:45 37.983467 -122.528662 198 5467ft 103kts
16-Sep-20 17:46 37.954338 -122.528793 184 5452ft 105kts
16-Sep-20 17:47 37.925147 -122.527522 184 5443ft 104kts
16-Sep-20 17:48 37.896130 -122.525701 183 5453ft 103kts
16-Sep-20 17:49 37.867325 -122.523480 183 5474ft 103kts
16-Sep-20 17:50 37.838053 -122.521015 183 5497ft 103kts
16-Sep-20 17:51 37.809326 -122.518803 184 5510ft 104kts
16-Sep-20 17:52 37.780575 -122.516641 184 5529ft 103kts
16-Sep-20 17:53 37.751648 -122.514303 183 5503ft 104kts
16-Sep-20 17:54 37.722038 -122.512902 185 5490ft 104kts
16-Sep-20 17:55 37.692361 -122.511593 185 5476ft 104kts
16-Sep-20 17:56 37.662579 -122.509638 184 5463ft 104kts
16-Sep-20 17:57 37.633462 -122.507459 184 5453ft 104kts
16-Sep-20 17:58 37.604037 -122.504537 183 5473ft 104kts
16-Sep-20 17:59 37.574388 -122.501559 183 5481ft 105kts
16-Sep-20 18:00 37.544359 -122.499678 185 5491ft 104kts
16-Sep-20 18:01 37.514091 -122.496269 158 5448ft 116kts
16-Sep-20 18:02 37.486037 -122.477617 159 5487ft 112kts
16-Sep-20 18:03 37.459840 -122.463555 164 5471ft 110kts
16-Sep-20 18:04 37.430529 -122.452351 163 5391ft 109kts
16-Sep-20 18:05 37.401394 -122.441124 162 5312ft 109kts
16-Sep-20 18:06 37.372709 -122.429970 162 5285ft 107kts
16-Sep-20 18:07 37.344636 -122.418956 162 5353ft 103kts
16-Sep-20 18:08 37.316369 -122.408503 164 5406ft 104kts
16-Sep-20 18:09 37.288281 -122.398403 163 5444ft 105kts
16-Sep-20 18:10 37.259163 -122.387826 163 5455ft 106kts
16-Sep-20 18:11 37.230432 -122.377287 163 5464ft 106kts
16-Sep-20 18:12 37.202026 -122.366766 163 5438ft 107kts
16-Sep-20 18:13 37.173102 -122.355952 163 5419ft 107kts
16-Sep-20 18:14 37.144259 -122.345065 163 5396ft 107kts
16-Sep-20 18:15 37.118576 -122.326358 147 5399ft 105kts
16-Sep-20 18:16 37.093713 -122.306023 147 5400ft 105kts
16-Sep-20 18:17 37.068906 -122.285621 147 5408ft 106kts
16-Sep-20 18:18 37.045357 -122.262890 140 5415ft 106kts
16-Sep-20 18:19 37.024988 -122.235507 132 5424ft 106kts
16-Sep-20 18:20 37.004801 -122.207629 132 5430ft 106kts
16-Sep-20 18:21 36.984650 -122.179655 132 5438ft 106kts
16-Sep-20 18:22 36.964117 -122.150998 132 5445ft 106kts
16-Sep-20 18:23 36.943923 -122.122667 132 5448ft 106kts
16-Sep-20 18:24 36.923952 -122.094499 131 5431ft 107kts
16-Sep-20 18:25 36.904062 -122.066299 131 5416ft 107kts
16-Sep-20 18:26 36.884156 -122.037914 131 5222ft 109kts
16-Sep-20 18:27 36.864152 -122.009223 131 4901ft 109kts
16-Sep-20 18:28 36.844102 -121.980309 131 4388ft 109kts
16-Sep-20 18:29 36.824358 -121.951643 131 3513ft 108kts
16-Sep-20 18:30 36.804915 -121.923545 132 2610ft 107kts
16-Sep-20 18:31 36.783804 -121.897811 136 1748ft 105kts
16-Sep-20 18:32 36.769897 -121.867015 114 1140ft 100kts
16-Sep-20 18:33 36.753621 -121.840471 137 1144ft 96kts
16-Sep-20 18:34 36.733331 -121.816099 134 1155ft 100kts
16-Sep-20 18:35 36.712776 -121.791485 139 1082ft 96kts
16-Sep-20 18:36 36.688883 -121.777659 197 1100ft 92kts
16-Sep-20 18:37 36.680916 -121.757256 31 1087ft 93kts
16-Sep-20 18:38 36.696657 -121.775304 276 836ft 82kts
16-Sep-20 18:39 36.685050 -121.768601 121 205ft 58kts
16-Sep-20 18:41 36.681071 -121.762987 213 137ft 13kts

Navigation Log

Ident Type
Flight plan parsing failed, navigation log unavailable